Aviation Digital Data Service (ADDS)

Output produced by METARs form (2017 UTC 18 February 2018)
found at http://aviationweather.gov/adds/metars/
 
KAGC 181744Z 1818/1918 VRB04KT P6SM BKN025 
     FM182100 17005KT P6SM SCT250 
     FM190800 15007KT P6SM BKN250 WS020/19035KT 
     FM191300 17009KT P6SM -RA OVC020 WS020/21035KT